createdAt,value
2019-01-11T11:06:39.896Z,98987.57
2019-01-11T11:09:08.801Z,98984.19
2019-01-11T11:11:37.361Z,98999.27
2019-01-11T11:14:05.912Z,98979.39
2019-01-11T11:16:34.197Z,98970.56
2019-01-11T11:19:02.503Z,98964.97
2019-01-11T11:21:34.649Z,98972.98
2019-01-11T11:24:01.157Z,98956.33
2019-01-11T11:26:29.510Z,98972.70
2019-01-11T11:28:57.833Z,98955.09
2019-01-11T11:31:26.116Z,98954.27
2019-01-11T11:33:54.400Z,98947.69
2019-01-11T11:36:22.785Z,98957.53
2019-01-11T11:38:51.069Z,98973.56
2019-01-11T11:41:19.444Z,98952.28
2019-01-11T11:43:48.096Z,98950.38
2019-01-11T11:46:16.411Z,98952.35
2019-01-11T11:48:45.072Z,98971.34
2019-01-11T11:51:13.530Z,98942.41
2019-01-11T11:53:42.138Z,98952.99
2019-01-11T11:56:10.725Z,98952.22
2019-01-11T11:58:39.098Z,98934.36
2019-01-11T12:01:08.324Z,98940.70
2019-01-11T12:03:36.631Z,98938.12
2019-01-11T12:06:05.076Z,98931.78
2019-01-11T12:08:33.464Z,98921.97
2019-01-11T12:11:01.756Z,98928.58
2019-01-11T12:13:30.060Z,98921.44
2019-01-11T12:15:58.344Z,98917.41
2019-01-11T12:18:26.974Z,98902.31
2019-01-11T12:20:55.356Z,98930.78
2019-01-11T12:23:23.790Z,98922.05
2019-01-11T12:25:52.180Z,98910.36
2019-01-11T12:28:20.524Z,98926.86
2019-01-11T12:30:48.876Z,98936.48
2019-01-11T12:33:17.186Z,98916.68
2019-01-11T12:35:45.472Z,98906.92
2019-01-11T12:38:14.442Z,98902.77
2019-01-11T12:40:42.729Z,98897.94
2019-01-11T12:43:14.000Z,98904.29
2019-01-11T12:45:42.363Z,98894.30
2019-01-11T12:48:10.667Z,98891.91
2019-01-11T12:50:39.021Z,98881.55
2019-01-11T12:53:07.339Z,98891.03
2019-01-11T12:55:35.631Z,98892.39
2019-01-11T12:58:03.939Z,98897.07
2019-01-11T13:00:32.233Z,98892.98
2019-01-11T13:03:00.817Z,98876.18
2019-01-11T13:05:29.192Z,98890.55
2019-01-11T13:07:57.488Z,98881.16
2019-01-11T13:10:25.965Z,98874.75
2019-01-11T13:12:54.331Z,98873.91
2019-01-11T13:15:23.040Z,98898.47
2019-01-11T13:17:51.729Z,98880.31
2019-01-11T13:20:21.453Z,98880.94
2019-01-11T13:22:49.993Z,98891.11
2019-01-11T13:25:18.967Z,98880.39
2019-01-11T13:27:47.272Z,98899.48
2019-01-11T13:30:17.430Z,98876.50
2019-01-11T13:32:45.897Z,98877.92
2019-01-11T13:35:14.274Z,98887.87
2019-01-11T13:37:42.643Z,98880.55
2019-01-11T13:40:14.048Z,98867.43
2019-01-11T13:42:42.433Z,98876.59
2019-01-11T13:45:11.450Z,98892.63
2019-01-11T13:47:40.196Z,98873.09
2019-01-11T13:50:17.701Z,98875.13
2019-01-11T13:52:46.025Z,98871.13
2019-01-11T13:55:14.404Z,98869.91
2019-01-11T13:57:42.749Z,98870.39
2019-01-11T14:00:14.693Z,98865.69
2019-01-11T14:02:43.803Z,98858.45
2019-01-11T14:05:12.395Z,98856.10
2019-01-11T14:07:40.762Z,98859.11
2019-01-11T14:10:09.093Z,98856.20
2019-01-11T14:12:37.395Z,98855.25
2019-01-11T14:15:08.559Z,98856.84
2019-01-11T14:17:36.858Z,98859.47
2019-01-11T14:20:07.530Z,98853.89
2019-01-11T14:22:35.831Z,98851.80
2019-01-11T14:25:08.601Z,98850.30
2019-01-11T14:27:36.993Z,98840.88
2019-01-11T14:30:17.262Z,98840.70
2019-01-11T14:32:45.866Z,98851.94
2019-01-11T14:35:14.172Z,98853.23
2019-01-11T14:37:42.854Z,98852.63
2019-01-11T14:40:16.379Z,98834.94
2019-01-11T14:42:44.869Z,98840.77
2019-01-11T14:45:16.293Z,98823.28
2019-01-11T14:47:44.829Z,98829.65
2019-01-11T14:50:15.687Z,98826.42
2019-01-11T14:52:44.430Z,98823.53
2019-01-11T14:55:12.919Z,98821.83
2019-01-11T14:57:41.292Z,98850.23
2019-01-11T15:00:12.781Z,98819.24
2019-01-11T15:02:41.087Z,98825.91
2019-01-11T15:05:11.641Z,98829.66
2019-01-11T15:07:39.944Z,98819.31
2019-01-11T15:10:11.084Z,98826.45
2019-01-11T15:12:39.820Z,98831.43
2019-01-11T15:15:09.056Z,98834.09
2019-01-11T15:17:37.448Z,98827.63
2019-01-11T15:20:08.938Z,98830.33
2019-01-11T15:22:37.581Z,98831.88
2019-01-11T15:25:08.219Z,98830.00
2019-01-11T15:27:36.539Z,98838.56
2019-01-11T15:30:08.013Z,98837.55
2019-01-11T15:32:36.521Z,98832.16
2019-01-11T15:35:06.588Z,98827.56
2019-01-11T15:37:34.919Z,98843.14
2019-01-11T15:40:04.951Z,98829.69
2019-01-11T15:42:33.263Z,98832.97
2019-01-11T15:45:01.591Z,98822.47
2019-01-11T15:47:29.904Z,98826.87
2019-01-11T15:49:58.232Z,98820.47
2019-01-11T15:52:33.083Z,98827.95
2019-01-11T15:54:56.673Z,98829.78
2019-01-11T15:57:27.019Z,98825.89
2019-01-11T16:00:00.930Z,98836.56
2019-01-11T16:02:29.245Z,98833.89
2019-01-11T16:04:59.833Z,98832.36
2019-01-11T16:07:28.518Z,98823.08
2019-01-11T16:09:59.383Z,98831.45
2019-01-11T16:12:30.763Z,98815.57
2019-01-11T16:15:10.548Z,98820.58
2019-01-11T16:17:38.855Z,98822.03
2019-01-11T16:20:12.446Z,98814.88
2019-01-11T16:22:40.840Z,98813.06
2019-01-11T16:25:11.959Z,98806.15
2019-01-11T16:27:40.773Z,98799.95
2019-01-11T16:30:12.090Z,98802.55
2019-01-11T16:32:40.428Z,98804.48
2019-01-11T16:35:08.808Z,98816.67
2019-01-11T16:37:37.228Z,98808.26
2019-01-11T16:40:11.204Z,98799.84
2019-01-11T16:42:40.723Z,98798.67
2019-01-11T16:45:12.254Z,98806.74
2019-01-11T16:47:40.630Z,98803.84
2019-01-11T16:50:15.355Z,98801.42
2019-01-11T16:52:46.436Z,98797.22
2019-01-11T16:55:14.159Z,98796.67
2019-01-11T16:57:42.541Z,98802.44
2019-01-11T17:00:16.950Z,98799.37
2019-01-11T17:02:45.671Z,98796.83
2019-01-11T17:05:14.720Z,98801.76
2019-01-11T17:07:43.009Z,98792.59
2019-01-11T17:10:12.839Z,98788.49
2019-01-11T17:12:41.947Z,98787.74
2019-01-11T17:15:14.332Z,98783.12
2019-01-11T17:17:42.749Z,98785.17
2019-01-11T17:20:14.165Z,98784.02
2019-01-11T17:22:42.492Z,98779.13
2019-01-11T17:25:11.080Z,98779.39
2019-01-11T17:27:39.495Z,98787.09
2019-01-11T17:30:13.652Z,98775.28
2019-01-11T17:32:41.997Z,98764.77
2019-01-11T17:35:10.442Z,98751.53
2019-01-11T17:37:38.753Z,98765.25
2019-01-11T17:40:09.829Z,98759.10
2019-01-11T17:42:38.267Z,98748.85
2019-01-11T17:45:10.999Z,98758.88
2019-01-11T17:47:39.715Z,98767.72
2019-01-11T17:50:11.402Z,98755.39
2019-01-11T17:52:39.775Z,98755.38
2019-01-11T17:55:08.563Z,98756.38
2019-01-11T17:57:37.292Z,98756.86
2019-01-11T18:00:09.446Z,98745.05
2019-01-11T18:02:37.918Z,98739.12
2019-01-11T18:05:08.667Z,98746.58
2019-01-11T18:07:37.210Z,98751.04
2019-01-11T18:10:08.630Z,98748.20
2019-01-11T18:12:37.328Z,98755.52
2019-01-11T18:15:08.645Z,98751.03
2019-01-11T18:17:36.991Z,98758.84
2019-01-11T18:20:11.544Z,98751.87
2019-01-11T18:22:39.885Z,98751.80
2019-01-11T18:25:08.262Z,98738.56
2019-01-11T18:27:36.642Z,98738.41
2019-01-11T18:30:08.142Z,98735.86
2019-01-11T18:32:36.449Z,98740.17
2019-01-11T18:35:06.265Z,98733.38
2019-01-11T18:37:34.640Z,98736.45
2019-01-11T18:40:03.249Z,98729.30
2019-01-11T18:42:31.919Z,98724.08
2019-01-11T18:45:00.632Z,98724.81
2019-01-11T18:47:28.941Z,98722.94
2019-01-11T18:49:57.293Z,98723.47
2019-01-11T18:52:25.586Z,98724.40
2019-01-11T18:54:53.898Z,98717.65
2019-01-11T18:57:22.224Z,98718.67
2019-01-11T18:59:50.538Z,98730.91
2019-01-11T19:02:18.876Z,98718.51
2019-01-11T19:04:47.251Z,98720.72
2019-01-11T19:07:15.602Z,98722.64
2019-01-11T19:09:43.918Z,98723.13
2019-01-11T19:12:12.258Z,98713.90
2019-01-11T19:14:40.572Z,98713.48
2019-01-11T19:17:08.916Z,98714.09
2019-01-11T19:19:37.306Z,98707.61
2019-01-11T19:22:06.080Z,98713.02
2019-01-11T19:24:34.393Z,98719.89
2019-01-11T19:27:02.720Z,98717.16
2019-01-11T19:29:31.033Z,98709.65
2019-01-11T19:31:59.358Z,98717.95
2019-01-11T19:34:28.040Z,98710.81
2019-01-11T19:36:56.354Z,98714.03
2019-01-11T19:39:24.684Z,98706.47
2019-01-11T19:41:53.016Z,98706.11
2019-01-11T19:44:21.319Z,98707.39
2019-01-11T19:46:49.631Z,98707.30
2019-01-11T19:49:17.971Z,98699.47
2019-01-11T19:51:46.715Z,98685.09
2019-01-11T19:54:15.321Z,98705.80
2019-01-11T19:56:43.648Z,98685.08
2019-01-11T19:59:11.983Z,98686.98
2019-01-11T20:01:40.357Z,98677.16
2019-01-11T20:04:08.783Z,98682.80
2019-01-11T20:06:37.174Z,98684.38
2019-01-11T20:09:07.685Z,98681.84
2019-01-11T20:11:36.008Z,98683.84
2019-01-11T20:14:04.490Z,98677.55
2019-01-11T20:16:33.211Z,98701.23
2019-01-11T20:19:01.499Z,98692.40
2019-01-11T20:21:30.024Z,98687.08
2019-01-11T20:23:58.339Z,98698.56
2019-01-11T20:26:26.747Z,98698.73
2019-01-11T20:28:55.058Z,98695.72
2019-01-11T20:31:23.675Z,98697.97
2019-01-11T20:33:52.175Z,98693.83
2019-01-11T20:36:20.881Z,98699.73
2019-01-11T20:38:49.383Z,98691.20
2019-01-11T20:41:17.758Z,98689.31
2019-01-11T20:43:46.088Z,98685.07
2019-01-11T20:46:14.470Z,98695.48
2019-01-11T20:48:42.895Z,98684.91
2019-01-11T20:51:11.205Z,98676.48
2019-01-11T20:53:41.803Z,98685.14
2019-01-11T20:56:09.846Z,98674.70
2019-01-11T20:58:38.459Z,98669.14
2019-01-11T21:01:08.276Z,98682.92
2019-01-11T21:03:36.660Z,98671.48
2019-01-11T21:06:05.251Z,98667.42
2019-01-11T21:08:33.566Z,98678.15
2019-01-11T21:11:01.897Z,98675.42
2019-01-11T21:13:30.576Z,98659.87
2019-01-11T21:15:58.928Z,98657.84
2019-01-11T21:18:27.307Z,98660.66
2019-01-11T21:20:55.634Z,98650.37
2019-01-11T21:23:24.064Z,98670.02
2019-01-11T21:25:52.392Z,98651.33
2019-01-11T21:28:20.773Z,98652.53
2019-01-11T21:30:49.158Z,98647.98
2019-01-11T21:33:17.560Z,98647.55
2019-01-11T21:35:45.909Z,98647.50
2019-01-11T21:38:14.598Z,98656.22
2019-01-11T21:40:42.907Z,98655.25
2019-01-11T21:43:11.254Z,98670.74
2019-01-11T21:45:39.575Z,98681.22
2019-01-11T21:48:07.963Z,98665.08
2019-01-11T21:50:36.709Z,98673.89
2019-01-11T21:53:05.409Z,98675.36
2019-01-11T21:55:34.084Z,98679.06
2019-01-11T21:58:02.473Z,98666.64
2019-01-11T22:00:36.569Z,98667.19
2019-01-11T22:03:06.216Z,98669.97
2019-01-11T22:05:34.614Z,98667.69
2019-01-11T22:08:02.920Z,98657.64
2019-01-11T22:10:31.544Z,98661.03
2019-01-11T22:13:00.236Z,98652.60
2019-01-11T22:15:28.542Z,98663.03
2019-01-11T22:17:56.876Z,98659.37
2019-01-11T22:20:25.180Z,98644.92
2019-01-11T22:22:53.517Z,98654.27
2019-01-11T22:25:21.846Z,98645.55
2019-01-11T22:27:50.527Z,98660.92
2019-01-11T22:30:21.472Z,98653.42
2019-01-11T22:32:49.962Z,98658.36
2019-01-11T22:35:18.824Z,98665.93
2019-01-11T22:37:47.204Z,98664.57
2019-01-11T22:40:18.066Z,98648.94
2019-01-11T22:42:47.366Z,98645.47
2019-01-11T22:45:16.180Z,98656.23
2019-01-11T22:47:44.852Z,98635.39
2019-01-11T22:50:15.323Z,98643.44
2019-01-11T22:52:43.790Z,98649.61
2019-01-11T22:55:14.563Z,98659.77
2019-01-11T22:57:42.871Z,98647.16
2019-01-11T23:00:30.517Z,98651.63
2019-01-11T23:02:59.693Z,98664.61
2019-01-11T23:05:28.099Z,98641.12
2019-01-11T23:07:57.667Z,98644.51
2019-01-11T23:10:41.045Z,98656.14
2019-01-11T23:13:09.460Z,98647.09
2019-01-11T23:15:37.834Z,98657.25
2019-01-11T23:18:06.630Z,98682.86
2019-01-11T23:20:34.941Z,98660.29
2019-01-11T23:23:03.469Z,98662.33
2019-01-11T23:25:31.831Z,98673.52
2019-01-11T23:28:00.149Z,98677.14
2019-01-11T23:30:28.454Z,98652.34
2019-01-11T23:32:56.792Z,98684.55
2019-01-11T23:35:25.098Z,98670.02
2019-01-11T23:37:53.431Z,98680.45
2019-01-11T23:40:21.744Z,98669.55
2019-01-11T23:42:50.090Z,98663.37
2019-01-11T23:45:18.538Z,98670.77
2019-01-11T23:47:46.851Z,98673.58
2019-01-11T23:50:15.927Z,98672.42
2019-01-11T23:52:44.486Z,98669.86
2019-01-11T23:55:13.284Z,98673.81
2019-01-11T23:57:41.597Z,98675.41
